sensor_id;sensor_type;location;lat;lon;timestamp;pressure;altitude;pressure_sealevel;temperature;humidity
20368;BME280;10343;52.402;9.796;2022-08-19T00:00:02;100749.22;;;20.49;86.73
20368;BME280;10343;52.402;9.796;2022-08-19T00:02:31;100747.22;;;20.52;86.81
20368;BME280;10343;52.402;9.796;2022-08-19T00:04:58;100754.31;;;20.53;86.85
20368;BME280;10343;52.402;9.796;2022-08-19T00:07:26;100763.53;;;20.49;86.89
20368;BME280;10343;52.402;9.796;2022-08-19T00:09:56;100754.91;;;20.44;88.01
20368;BME280;10343;52.402;9.796;2022-08-19T00:12:24;100749.16;;;20.36;87.86
20368;BME280;10343;52.402;9.796;2022-08-19T00:14:52;100737.41;;;20.37;88.02
20368;BME280;10343;52.402;9.796;2022-08-19T00:17:21;100741.84;;;20.38;87.57
20368;BME280;10343;52.402;9.796;2022-08-19T00:19:49;100745.09;;;20.29;87.45
20368;BME280;10343;52.402;9.796;2022-08-19T00:22:17;100734.16;;;20.32;87.33
20368;BME280;10343;52.402;9.796;2022-08-19T00:24:46;100727.78;;;20.33;86.76
20368;BME280;10343;52.402;9.796;2022-08-19T00:27:17;100719.16;;;20.28;87.09
20368;BME280;10343;52.402;9.796;2022-08-19T00:29:52;100719.94;;;20.15;87.40
20368;BME280;10343;52.402;9.796;2022-08-19T00:32:20;100711.88;;;20.15;87.99
20368;BME280;10343;52.402;9.796;2022-08-19T00:34:49;100712.72;;;20.16;86.99
20368;BME280;10343;52.402;9.796;2022-08-19T00:37:19;100714.16;;;20.07;87.59
20368;BME280;10343;52.402;9.796;2022-08-19T00:39:50;100708.31;;;20.00;87.50
20368;BME280;10343;52.402;9.796;2022-08-19T00:42:20;100714.63;;;19.99;87.90
20368;BME280;10343;52.402;9.796;2022-08-19T00:44:49;100707.63;;;19.97;87.44
20368;BME280;10343;52.402;9.796;2022-08-19T00:47:17;100702.34;;;19.81;88.51
20368;BME280;10343;52.402;9.796;2022-08-19T00:49:49;100706.84;;;19.80;88.47
20368;BME280;10343;52.402;9.796;2022-08-19T00:52:21;100698.84;;;19.79;89.46
20368;BME280;10343;52.402;9.796;2022-08-19T00:54:51;100702.66;;;19.75;89.89
20368;BME280;10343;52.402;9.796;2022-08-19T00:57:28;100693.44;;;19.79;89.17
20368;BME280;10343;52.402;9.796;2022-08-19T00:59:57;100687.41;;;19.75;88.67
20368;BME280;10343;52.402;9.796;2022-08-19T01:02:30;100682.31;;;19.71;89.31
20368;BME280;10343;52.402;9.796;2022-08-19T01:05:01;100688.56;;;19.71;89.42
20368;BME280;10343;52.402;9.796;2022-08-19T01:07:30;100678.81;;;19.54;89.92
20368;BME280;10343;52.402;9.796;2022-08-19T01:10:06;100682.78;;;19.63;90.48
20368;BME280;10343;52.402;9.796;2022-08-19T01:12:36;100671.03;;;19.49;91.20
20368;BME280;10343;52.402;9.796;2022-08-19T01:15:06;100669.59;;;19.58;90.10
20368;BME280;10343;52.402;9.796;2022-08-19T01:17:36;100672.97;;;19.62;89.57
20368;BME280;10343;52.402;9.796;2022-08-19T01:20:07;100687.28;;;19.48;90.35
20368;BME280;10343;52.402;9.796;2022-08-19T01:22:43;100688.91;;;19.50;90.94
20368;BME280;10343;52.402;9.796;2022-08-19T01:25:12;100689.78;;;19.51;90.44
20368;BME280;10343;52.402;9.796;2022-08-19T01:27:43;100694.09;;;19.54;90.32
20368;BME280;10343;52.402;9.796;2022-08-19T01:30:13;100688.50;;;19.42;90.73
20368;BME280;10343;52.402;9.796;2022-08-19T01:32:41;100688.72;;;19.54;90.21
20368;BME280;10343;52.402;9.796;2022-08-19T01:35:12;100695.66;;;19.58;89.56
20368;BME280;10343;52.402;9.796;2022-08-19T01:37:47;100699.09;;;19.60;90.67
20368;BME280;10343;52.402;9.796;2022-08-19T01:40:16;100701.88;;;19.58;89.92
20368;BME280;10343;52.402;9.796;2022-08-19T01:42:46;100697.19;;;19.62;90.03
20368;BME280;10343;52.402;9.796;2022-08-19T01:45:16;100681.25;;;19.59;89.76
20368;BME280;10343;52.402;9.796;2022-08-19T01:47:45;100674.88;;;19.45;91.41
20368;BME280;10343;52.402;9.796;2022-08-19T01:50:27;100663.94;;;19.48;91.40
20368;BME280;10343;52.402;9.796;2022-08-19T01:52:57;100665.88;;;19.46;91.24
20368;BME280;10343;52.402;9.796;2022-08-19T01:55:35;100661.69;;;19.41;92.24
20368;BME280;10343;52.402;9.796;2022-08-19T01:58:10;100658.94;;;19.42;92.03
20368;BME280;10343;52.402;9.796;2022-08-19T02:00:39;100666.81;;;19.45;91.21
20368;BME280;10343;52.402;9.796;2022-08-19T02:03:07;100672.09;;;19.47;91.37
20368;BME280;10343;52.402;9.796;2022-08-19T02:05:37;100684.94;;;19.42;91.23
20368;BME280;10343;52.402;9.796;2022-08-19T02:08:07;100671.59;;;19.40;91.29
20368;BME280;10343;52.402;9.796;2022-08-19T02:10:39;100673.34;;;19.41;91.81
20368;BME280;10343;52.402;9.796;2022-08-19T02:13:07;100678.72;;;19.41;92.27
20368;BME280;10343;52.402;9.796;2022-08-19T02:15:36;100680.03;;;19.34;92.82
20368;BME280;10343;52.402;9.796;2022-08-19T02:18:04;100682.53;;;19.37;92.05
20368;BME280;10343;52.402;9.796;2022-08-19T02:20:34;100676.66;;;19.30;93.25
20368;BME280;10343;52.402;9.796;2022-08-19T02:23:03;100676.47;;;19.33;92.51
20368;BME280;10343;52.402;9.796;2022-08-19T02:25:41;100667.75;;;19.30;93.09
20368;BME280;10343;52.402;9.796;2022-08-19T02:28:09;100665.41;;;19.24;93.18
20368;BME280;10343;52.402;9.796;2022-08-19T02:30:44;100659.19;;;19.23;94.22
20368;BME280;10343;52.402;9.796;2022-08-19T02:33:11;100658.13;;;19.26;93.43
20368;BME280;10343;52.402;9.796;2022-08-19T02:35:41;100650.75;;;19.29;93.69
20368;BME280;10343;52.402;9.796;2022-08-19T02:38:09;100658.69;;;19.31;93.59
20368;BME280;10343;52.402;9.796;2022-08-19T02:40:59;100655.34;;;19.27;92.61
20368;BME280;10343;52.402;9.796;2022-08-19T02:43:29;100656.75;;;19.18;93.80
20368;BME280;10343;52.402;9.796;2022-08-19T02:46:00;100664.72;;;19.20;93.76
20368;BME280;10343;52.402;9.796;2022-08-19T02:48:28;100665.59;;;19.21;93.44
20368;BME280;10343;52.402;9.796;2022-08-19T02:50:56;100657.63;;;19.19;93.76
20368;BME280;10343;52.402;9.796;2022-08-19T02:53:26;100659.28;;;19.22;93.06
20368;BME280;10343;52.402;9.796;2022-08-19T02:55:56;100658.03;;;19.27;92.64
20368;BME280;10343;52.402;9.796;2022-08-19T02:58:24;100660.88;;;19.24;93.30
20368;BME280;10343;52.402;9.796;2022-08-19T03:00:55;100662.50;;;19.12;93.08
20368;BME280;10343;52.402;9.796;2022-08-19T03:03:23;100670.97;;;19.21;93.26
20368;BME280;10343;52.402;9.796;2022-08-19T03:05:51;100667.34;;;19.22;92.80
20368;BME280;10343;52.402;9.796;2022-08-19T03:08:23;100661.88;;;19.23;92.26
20368;BME280;10343;52.402;9.796;2022-08-19T03:10:52;100657.63;;;19.19;93.43
20368;BME280;10343;52.402;9.796;2022-08-19T03:13:21;100663.88;;;19.20;92.66
20368;BME280;10343;52.402;9.796;2022-08-19T03:15:50;100664.91;;;19.17;92.91
20368;BME280;10343;52.402;9.796;2022-08-19T03:18:18;100661.78;;;19.25;92.67
20368;BME280;10343;52.402;9.796;2022-08-19T03:20:50;100674.72;;;19.18;93.64
20368;BME280;10343;52.402;9.796;2022-08-19T03:23:19;100681.72;;;19.21;92.63
20368;BME280;10343;52.402;9.796;2022-08-19T03:25:48;100681.91;;;19.17;92.78
20368;BME280;10343;52.402;9.796;2022-08-19T03:28:31;100686.91;;;19.24;92.84
20368;BME280;10343;52.402;9.796;2022-08-19T03:31:01;100686.72;;;19.27;93.00
20368;BME280;10343;52.402;9.796;2022-08-19T03:33:30;100692.66;;;19.17;92.25
20368;BME280;10343;52.402;9.796;2022-08-19T03:36:05;100687.94;;;19.21;92.20
20368;BME280;10343;52.402;9.796;2022-08-19T03:38:34;100684.50;;;19.19;91.85
20368;BME280;10343;52.402;9.796;2022-08-19T03:41:05;100684.59;;;19.17;92.74
20368;BME280;10343;52.402;9.796;2022-08-19T03:43:37;100687.72;;;19.10;92.49
20368;BME280;10343;52.402;9.796;2022-08-19T03:46:08;100702.03;;;19.10;92.75
20368;BME280;10343;52.402;9.796;2022-08-19T03:48:37;100698.75;;;19.05;92.68
20368;BME280;10343;52.402;9.796;2022-08-19T03:51:07;100701.59;;;19.02;93.10
20368;BME280;10343;52.402;9.796;2022-08-19T03:53:35;100705.78;;;18.92;94.75
20368;BME280;10343;52.402;9.796;2022-08-19T03:56:03;100703.78;;;18.79;95.37
20368;BME280;10343;52.402;9.796;2022-08-19T03:58:31;100709.16;;;18.79;97.01
20368;BME280;10343;52.402;9.796;2022-08-19T04:01:00;100703.78;;;18.79;96.41
20368;BME280;10343;52.402;9.796;2022-08-19T04:03:30;100696.75;;;18.77;96.54
20368;BME280;10343;52.402;9.796;2022-08-19T04:05:57;100704.91;;;18.75;97.46
20368;BME280;10343;52.402;9.796;2022-08-19T04:08:25;100701.19;;;18.78;96.35
20368;BME280;10343;52.402;9.796;2022-08-19T04:10:53;100701.88;;;18.65;96.34
20368;BME280;10343;52.402;9.796;2022-08-19T04:13:24;100710.56;;;18.71;96.81
20368;BME280;10343;52.402;9.796;2022-08-19T04:15:53;100704.81;;;18.61;97.49
20368;BME280;10343;52.402;9.796;2022-08-19T04:18:22;100712.09;;;18.59;97.71
20368;BME280;10343;52.402;9.796;2022-08-19T04:20:53;100713.50;;;18.50;97.55
20368;BME280;10343;52.402;9.796;2022-08-19T04:23:21;100721.59;;;18.48;97.82
20368;BME280;10343;52.402;9.796;2022-08-19T04:25:48;100707.25;;;18.49;97.98
20368;BME280;10343;52.402;9.796;2022-08-19T04:28:17;100704.13;;;18.57;97.29
20368;BME280;10343;52.402;9.796;2022-08-19T04:30:46;100701.69;;;18.53;97.07
20368;BME280;10343;52.402;9.796;2022-08-19T04:33:18;100700.00;;;18.52;96.95
20368;BME280;10343;52.402;9.796;2022-08-19T04:35:55;100703.44;;;18.54;98.14
20368;BME280;10343;52.402;9.796;2022-08-19T04:38:24;100696.69;;;18.46;98.15
20368;BME280;10343;52.402;9.796;2022-08-19T04:40:52;100706.81;;;18.41;98.00
20368;BME280;10343;52.402;9.796;2022-08-19T04:43:38;100702.22;;;18.43;97.98
20368;BME280;10343;52.402;9.796;2022-08-19T04:46:06;100703.63;;;18.50;96.54
20368;BME280;10343;52.402;9.796;2022-08-19T04:48:35;100701.38;;;18.59;95.93
20368;BME280;10343;52.402;9.796;2022-08-19T04:51:16;100701.19;;;18.62;95.23
20368;BME280;10343;52.402;9.796;2022-08-19T04:53:44;100704.91;;;18.59;95.40
20368;BME280;10343;52.402;9.796;2022-08-19T04:56:15;100720.16;;;18.59;94.86
20368;BME280;10343;52.402;9.796;2022-08-19T04:58:44;100716.44;;;18.61;94.45
20368;BME280;10343;52.402;9.796;2022-08-19T05:01:13;100712.28;;;18.56;95.28
20368;BME280;10343;52.402;9.796;2022-08-19T05:03:42;100716.75;;;18.55;94.80
20368;BME280;10343;52.402;9.796;2022-08-19T05:06:12;100712.38;;;18.54;93.76
20368;BME280;10343;52.402;9.796;2022-08-19T05:08:42;100717.13;;;18.65;94.09
20368;BME280;10343;52.402;9.796;2022-08-19T05:11:14;100732.09;;;18.69;93.52
20368;BME280;10343;52.402;9.796;2022-08-19T05:13:44;100729.59;;;18.66;93.25
20368;BME280;10343;52.402;9.796;2022-08-19T05:16:21;100726.16;;;18.64;93.85
20368;BME280;10343;52.402;9.796;2022-08-19T05:18:49;100724.75;;;18.73;92.63
20368;BME280;10343;52.402;9.796;2022-08-19T05:21:35;100710.91;;;18.80;92.54
20368;BME280;10343;52.402;9.796;2022-08-19T05:24:23;100703.59;;;18.82;92.33
20368;BME280;10343;52.402;9.796;2022-08-19T05:26:56;100700.91;;;18.82;91.22
20368;BME280;10343;52.402;9.796;2022-08-19T05:29:26;100698.41;;;18.79;91.07
20368;BME280;10343;52.402;9.796;2022-08-19T05:32:03;100694.34;;;18.72;91.75
20368;BME280;10343;52.402;9.796;2022-08-19T05:34:35;100696.84;;;18.75;90.72
20368;BME280;10343;52.402;9.796;2022-08-19T05:37:05;100702.75;;;18.66;91.36
20368;BME280;10343;52.402;9.796;2022-08-19T05:39:36;100702.56;;;18.69;90.81
20368;BME280;10343;52.402;9.796;2022-08-19T05:42:06;100700.94;;;18.50;93.07
20368;BME280;10343;52.402;9.796;2022-08-19T05:44:36;100703.44;;;18.54;92.73
20368;BME280;10343;52.402;9.796;2022-08-19T05:47:06;100705.69;;;18.45;92.20
20368;BME280;10343;52.402;9.796;2022-08-19T05:49:36;100708.97;;;18.50;91.92
20368;BME280;10343;52.402;9.796;2022-08-19T05:52:05;100705.59;;;18.47;92.18
20368;BME280;10343;52.402;9.796;2022-08-19T05:54:36;100705.00;;;18.58;91.94
20368;BME280;10343;52.402;9.796;2022-08-19T05:57:06;100701.97;;;18.64;91.43
20368;BME280;10343;52.402;9.796;2022-08-19T05:59:38;100707.50;;;18.61;90.22
20368;BME280;10343;52.402;9.796;2022-08-19T06:02:06;100709.00;;;18.66;90.29
20368;BME280;10343;52.402;9.796;2022-08-19T06:04:34;100707.78;;;18.72;89.35
20368;BME280;10343;52.402;9.796;2022-08-19T06:07:02;100721.63;;;18.80;88.40
20368;BME280;10343;52.402;9.796;2022-08-19T06:09:40;100720.09;;;18.76;88.58
20368;BME280;10343;52.402;9.796;2022-08-19T06:12:26;100723.03;;;18.88;87.91
20368;BME280;10343;52.402;9.796;2022-08-19T06:14:57;100729.13;;;18.91;87.32
20368;BME280;10343;52.402;9.796;2022-08-19T06:17:27;100735.59;;;19.03;86.71
20368;BME280;10343;52.402;9.796;2022-08-19T06:19:56;100727.09;;;19.11;85.66
20368;BME280;10343;52.402;9.796;2022-08-19T06:22:25;100733.59;;;19.07;85.33
20368;BME280;10343;52.402;9.796;2022-08-19T06:24:55;100740.34;;;18.98;85.37
20368;BME280;10343;52.402;9.796;2022-08-19T06:27:23;100731.16;;;19.02;85.71
20368;BME280;10343;52.402;9.796;2022-08-19T06:29:51;100733.00;;;19.01;85.22
20368;BME280;10343;52.402;9.796;2022-08-19T06:32:19;100746.16;;;19.06;85.24
20368;BME280;10343;52.402;9.796;2022-08-19T06:34:47;100755.41;;;19.16;85.04
20368;BME280;10343;52.402;9.796;2022-08-19T06:37:15;100760.41;;;19.23;84.86
20368;BME280;10343;52.402;9.796;2022-08-19T06:39:44;100757.09;;;19.33;83.15
20368;BME280;10343;52.402;9.796;2022-08-19T06:42:14;100753.38;;;19.36;82.44
20368;BME280;10343;52.402;9.796;2022-08-19T06:44:45;100744.28;;;19.39;82.63
20368;BME280;10343;52.402;9.796;2022-08-19T06:47:18;100757.81;;;19.37;83.34
20368;BME280;10343;52.402;9.796;2022-08-19T06:49:53;100763.69;;;19.44;82.29
20368;BME280;10343;52.402;9.796;2022-08-19T06:52:27;100760.53;;;19.51;81.76
20368;BME280;10343;52.402;9.796;2022-08-19T06:54:54;100762.47;;;19.49;81.71
20368;BME280;10343;52.402;9.796;2022-08-19T06:57:26;100760.72;;;19.48;81.70
20368;BME280;10343;52.402;9.796;2022-08-19T06:59:59;100763.78;;;19.42;81.89
20368;BME280;10343;52.402;9.796;2022-08-19T07:02:27;100773.34;;;19.32;82.27
20368;BME280;10343;52.402;9.796;2022-08-19T07:04:56;100771.78;;;19.28;83.51
20368;BME280;10343;52.402;9.796;2022-08-19T07:07:25;100773.56;;;19.43;82.91
20368;BME280;10343;52.402;9.796;2022-08-19T07:09:53;100779.13;;;19.40;81.92
20368;BME280;10343;52.402;9.796;2022-08-19T07:12:29;100785.53;;;19.38;82.42
20368;BME280;10343;52.402;9.796;2022-08-19T07:15:01;100775.28;;;19.60;81.93
20368;BME280;10343;52.402;9.796;2022-08-19T07:17:30;100784.97;;;19.63;81.07
20368;BME280;10343;52.402;9.796;2022-08-19T07:20:00;100786.84;;;19.46;81.77
20368;BME280;10343;52.402;9.796;2022-08-19T07:22:32;100788.44;;;19.65;80.69
20368;BME280;10343;52.402;9.796;2022-08-19T07:25:00;100801.28;;;19.60;80.92
20368;BME280;10343;52.402;9.796;2022-08-19T07:27:31;100808.19;;;19.64;79.73
20368;BME280;10343;52.402;9.796;2022-08-19T07:30:00;100806.16;;;19.83;78.62
20368;BME280;10343;52.402;9.796;2022-08-19T07:32:28;100808.50;;;19.90;78.92
20368;BME280;10343;52.402;9.796;2022-08-19T07:34:58;100809.66;;;20.00;78.07
20368;BME280;10343;52.402;9.796;2022-08-19T07:37:26;100816.44;;;20.07;78.65
20368;BME280;10343;52.402;9.796;2022-08-19T07:39:59;100820.66;;;20.26;77.10
20368;BME280;10343;52.402;9.796;2022-08-19T07:42:27;100820.69;;;20.40;76.16
20368;BME280;10343;52.402;9.796;2022-08-19T07:44:58;100813.84;;;20.49;75.81
20368;BME280;10343;52.402;9.796;2022-08-19T07:47:26;100824.16;;;20.71;75.71
20368;BME280;10343;52.402;9.796;2022-08-19T07:50:15;100836.00;;;20.83;73.99
20368;BME280;10343;52.402;9.796;2022-08-19T07:52:44;100842.72;;;20.90;73.75
20368;BME280;10343;52.402;9.796;2022-08-19T07:55:16;100841.56;;;20.94;73.43
20368;BME280;10343;52.402;9.796;2022-08-19T07:58:05;100842.44;;;20.80;73.26
20368;BME280;10343;52.402;9.796;2022-08-19T08:00:35;100844.53;;;21.04;72.07
20368;BME280;10343;52.402;9.796;2022-08-19T08:03:03;100834.69;;;21.17;70.96
20368;BME280;10343;52.402;9.796;2022-08-19T08:05:31;100836.22;;;21.21;71.53
20368;BME280;10343;52.402;9.796;2022-08-19T08:08:15;100836.81;;;21.12;70.64
20368;BME280;10343;52.402;9.796;2022-08-19T08:11:01;100839.06;;;21.33;69.69
20368;BME280;10343;52.402;9.796;2022-08-19T08:13:33;100845.66;;;21.14;69.85
20368;BME280;10343;52.402;9.796;2022-08-19T08:16:03;100852.94;;;21.27;68.51
20368;BME280;10343;52.402;9.796;2022-08-19T08:18:35;100842.31;;;21.38;67.84
20368;BME280;10343;52.402;9.796;2022-08-19T08:21:08;100843.84;;;21.42;67.37
20368;BME280;10343;52.402;9.796;2022-08-19T08:23:36;100835.75;;;21.42;66.37
20368;BME280;10343;52.402;9.796;2022-08-19T08:26:05;100854.09;;;21.23;66.50
20368;BME280;10343;52.402;9.796;2022-08-19T08:28:33;100846.19;;;21.34;65.66
20368;BME280;10343;52.402;9.796;2022-08-19T08:31:03;100839.06;;;21.33;65.92
20368;BME280;10343;52.402;9.796;2022-08-19T08:33:35;100841.59;;;21.21;64.82
20368;BME280;10343;52.402;9.796;2022-08-19T08:36:04;100841.19;;;21.28;64.46
20368;BME280;10343;52.402;9.796;2022-08-19T08:38:32;100842.25;;;21.25;64.21
20368;BME280;10343;52.402;9.796;2022-08-19T08:41:10;100837.81;;;21.51;63.51
20368;BME280;10343;52.402;9.796;2022-08-19T08:43:48;100843.09;;;21.67;62.92
20368;BME280;10343;52.402;9.796;2022-08-19T08:46:24;100848.34;;;21.83;62.04
20368;BME280;10343;52.402;9.796;2022-08-19T08:49:02;100832.50;;;22.04;61.92
20368;BME280;10343;52.402;9.796;2022-08-19T08:51:35;100837.34;;;21.99;62.08
20368;BME280;10343;52.402;9.796;2022-08-19T08:54:07;100837.13;;;22.02;62.31
20368;BME280;10343;52.402;9.796;2022-08-19T08:56:37;100835.81;;;21.95;60.97
20368;BME280;10343;52.402;9.796;2022-08-19T08:59:10;100838.75;;;22.05;60.61
20368;BME280;10343;52.402;9.796;2022-08-19T09:01:41;100845.69;;;22.22;60.55
20368;BME280;10343;52.402;9.796;2022-08-19T09:04:11;100839.13;;;22.65;60.01
20368;BME280;10343;52.402;9.796;2022-08-19T09:06:47;100836.38;;;22.78;58.55
20368;BME280;10343;52.402;9.796;2022-08-19T09:09:22;100843.75;;;23.26;57.23
20368;BME280;10343;52.402;9.796;2022-08-19T09:12:10;100837.81;;;23.20;56.29
20368;BME280;10343;52.402;9.796;2022-08-19T09:14:46;100843.56;;;23.16;56.51
20368;BME280;10343;52.402;9.796;2022-08-19T09:17:20;100843.97;;;23.10;56.81
20368;BME280;10343;52.402;9.796;2022-08-19T09:19:59;100839.06;;;23.28;56.32
20368;BME280;10343;52.402;9.796;2022-08-19T09:22:35;100834.19;;;23.33;55.82
20368;BME280;10343;52.402;9.796;2022-08-19T09:25:04;100840.31;;;23.11;55.49
20368;BME280;10343;52.402;9.796;2022-08-19T09:27:32;100834.47;;;23.04;56.36
20368;BME280;10343;52.402;9.796;2022-08-19T09:30:13;100837.69;;;23.22;55.58
20368;BME280;10343;52.402;9.796;2022-08-19T09:32:44;100834.44;;;23.30;55.51
20368;BME280;10343;52.402;9.796;2022-08-19T09:35:19;100831.88;;;23.15;54.65
20368;BME280;10343;52.402;9.796;2022-08-19T09:37:50;100830.16;;;23.14;54.89
20368;BME280;10343;52.402;9.796;2022-08-19T09:40:25;100833.84;;;23.00;55.07
20368;BME280;10343;52.402;9.796;2022-08-19T09:42:56;100828.44;;;23.00;55.69
20368;BME280;10343;52.402;9.796;2022-08-19T09:45:35;100829.47;;;23.11;55.98
20368;BME280;10343;52.402;9.796;2022-08-19T09:48:05;100827.28;;;23.29;54.51
20368;BME280;10343;52.402;9.796;2022-08-19T09:50:35;100814.63;;;23.53;53.73
20368;BME280;10343;52.402;9.796;2022-08-19T09:53:18;100826.47;;;23.02;54.12
20368;BME280;10343;52.402;9.796;2022-08-19T09:55:51;100830.91;;;23.16;54.27
20368;BME280;10343;52.402;9.796;2022-08-19T09:58:19;100826.56;;;23.62;54.06
20368;BME280;10343;52.402;9.796;2022-08-19T10:00:52;100820.91;;;23.89;52.66
20368;BME280;10343;52.402;9.796;2022-08-19T10:03:22;100826.69;;;23.61;52.61
20368;BME280;10343;52.402;9.796;2022-08-19T10:05:58;100827.22;;;23.66;52.94
20368;BME280;10343;52.402;9.796;2022-08-19T10:08:28;100820.84;;;23.67;52.96
20368;BME280;10343;52.402;9.796;2022-08-19T10:11:00;100827.97;;;23.68;52.43
20368;BME280;10343;52.402;9.796;2022-08-19T10:13:48;100818.66;;;23.72;53.53
20368;BME280;10343;52.402;9.796;2022-08-19T10:16:18;100810.56;;;23.83;52.81
20368;BME280;10343;52.402;9.796;2022-08-19T10:18:53;100826.56;;;23.86;52.13
20368;BME280;10343;52.402;9.796;2022-08-19T10:21:27;100814.66;;;23.89;51.72
20368;BME280;10343;52.402;9.796;2022-08-19T10:23:59;100818.84;;;23.93;52.02
20368;BME280;10343;52.402;9.796;2022-08-19T10:26:29;100810.53;;;23.72;51.46
20368;BME280;10343;52.402;9.796;2022-08-19T10:28:58;100819.22;;;23.40;51.69
20368;BME280;10343;52.402;9.796;2022-08-19T10:31:28;100814.13;;;23.24;53.01
20368;BME280;10343;52.402;9.796;2022-08-19T10:34:17;100813.75;;;23.29;52.26
20368;BME280;10343;52.402;9.796;2022-08-19T10:36:54;100800.69;;;23.47;52.77
20368;BME280;10343;52.402;9.796;2022-08-19T10:39:27;100796.81;;;23.27;52.51
20368;BME280;10343;52.402;9.796;2022-08-19T10:41:57;100787.47;;;23.31;52.12
20368;BME280;10343;52.402;9.796;2022-08-19T10:44:25;100791.19;;;23.17;52.34
20368;BME280;10343;52.402;9.796;2022-08-19T10:46:59;100790.34;;;23.16;52.89
20368;BME280;10343;52.402;9.796;2022-08-19T10:49:28;100777.34;;;23.08;52.55
20368;BME280;10343;52.402;9.796;2022-08-19T10:51:56;100774.63;;;23.08;52.70
20368;BME280;10343;52.402;9.796;2022-08-19T10:54:48;100771.03;;;22.97;52.11
20368;BME280;10343;52.402;9.796;2022-08-19T10:57:42;100771.75;;;22.99;52.33
20368;BME280;10343;52.402;9.796;2022-08-19T11:00:28;100766.00;;;22.79;53.20
20368;BME280;10343;52.402;9.796;2022-08-19T11:02:57;100770.72;;;22.88;53.65
20368;BME280;10343;52.402;9.796;2022-08-19T11:05:26;100769.94;;;22.99;52.88
20368;BME280;10343;52.402;9.796;2022-08-19T11:08:02;100756.84;;;23.06;52.92
20368;BME280;10343;52.402;9.796;2022-08-19T11:10:49;100770.06;;;22.98;52.63
20368;BME280;10343;52.402;9.796;2022-08-19T11:13:17;100761.19;;;22.96;51.43
20368;BME280;10343;52.402;9.796;2022-08-19T11:15:45;100758.59;;;22.94;51.82
20368;BME280;10343;52.402;9.796;2022-08-19T11:18:13;100760.78;;;22.89;52.00
20368;BME280;10343;52.402;9.796;2022-08-19T11:20:44;100758.72;;;22.93;52.02
20368;BME280;10343;52.402;9.796;2022-08-19T11:23:12;100752.16;;;23.08;51.95
20368;BME280;10343;52.402;9.796;2022-08-19T11:25:40;100744.53;;;23.02;51.22
20368;BME280;10343;52.402;9.796;2022-08-19T11:28:08;100742.31;;;23.07;52.09
20368;BME280;10343;52.402;9.796;2022-08-19T11:30:36;100732.81;;;23.14;52.47
20368;BME280;10343;52.402;9.796;2022-08-19T11:33:04;100730.59;;;23.19;52.83
20368;BME280;10343;52.402;9.796;2022-08-19T11:35:32;100727.63;;;23.47;52.55
20368;BME280;10343;52.402;9.796;2022-08-19T11:38:01;100725.72;;;23.60;51.87
20368;BME280;10343;52.402;9.796;2022-08-19T11:40:35;100724.41;;;23.77;50.91
20368;BME280;10343;52.402;9.796;2022-08-19T11:43:03;100734.47;;;23.64;50.28
20368;BME280;10343;52.402;9.796;2022-08-19T11:45:31;100733.00;;;23.60;50.35
20368;BME280;10343;52.402;9.796;2022-08-19T11:47:59;100734.97;;;23.69;50.11
20368;BME280;10343;52.402;9.796;2022-08-19T11:50:27;100731.78;;;23.64;50.54
20368;BME280;10343;52.402;9.796;2022-08-19T11:52:56;100740.84;;;23.63;50.72
20368;BME280;10343;52.402;9.796;2022-08-19T11:55:25;100742.13;;;23.81;50.74
20368;BME280;10343;52.402;9.796;2022-08-19T11:57:53;100744.09;;;23.79;51.30
20368;BME280;10343;52.402;9.796;2022-08-19T12:00:21;100737.97;;;23.88;50.68
20368;BME280;10343;52.402;9.796;2022-08-19T12:02:49;100738.47;;;24.05;50.75
20368;BME280;10343;52.402;9.796;2022-08-19T12:05:17;100726.06;;;24.14;50.22
20368;BME280;10343;52.402;9.796;2022-08-19T12:07:45;100726.94;;;24.14;49.72
20368;BME280;10343;52.402;9.796;2022-08-19T12:10:13;100722.88;;;24.31;49.94
20368;BME280;10343;52.402;9.796;2022-08-19T12:12:45;100712.66;;;24.35;49.17
20368;BME280;10343;52.402;9.796;2022-08-19T12:15:24;100709.19;;;24.44;49.37
20368;BME280;10343;52.402;9.796;2022-08-19T12:18:02;100705.88;;;24.40;48.71
20368;BME280;10343;52.402;9.796;2022-08-19T12:20:33;100708.44;;;24.42;48.59
20368;BME280;10343;52.402;9.796;2022-08-19T12:23:02;100701.66;;;24.48;48.10
20368;BME280;10343;52.402;9.796;2022-08-19T12:25:30;100701.53;;;24.61;48.34
20368;BME280;10343;52.402;9.796;2022-08-19T12:28:01;100710.66;;;24.59;48.87
20368;BME280;10343;52.402;9.796;2022-08-19T12:30:30;100720.28;;;24.64;48.64
20368;BME280;10343;52.402;9.796;2022-08-19T12:32:57;100715.69;;;24.53;48.53
20368;BME280;10343;52.402;9.796;2022-08-19T12:35:25;100719.75;;;24.58;47.52
20368;BME280;10343;52.402;9.796;2022-08-19T12:37:53;100712.28;;;24.51;46.60
20368;BME280;10343;52.402;9.796;2022-08-19T12:40:23;100706.88;;;24.39;46.90
20368;BME280;10343;52.402;9.796;2022-08-19T12:42:52;100707.44;;;24.54;46.90
20368;BME280;10343;52.402;9.796;2022-08-19T12:45:21;100711.44;;;24.62;46.44
20368;BME280;10343;52.402;9.796;2022-08-19T12:47:49;100711.16;;;24.53;46.85
20368;BME280;10343;52.402;9.796;2022-08-19T12:50:21;100718.31;;;24.66;46.67
20368;BME280;10343;52.402;9.796;2022-08-19T12:52:49;100718.06;;;24.57;47.36
20368;BME280;10343;52.402;9.796;2022-08-19T12:55:17;100724.72;;;24.53;47.41
20368;BME280;10343;52.402;9.796;2022-08-19T12:57:45;100725.44;;;24.55;47.98
20368;BME280;10343;52.402;9.796;2022-08-19T13:00:17;100721.75;;;24.56;48.21
20368;BME280;10343;52.402;9.796;2022-08-19T13:02:50;100708.69;;;24.73;48.18
20368;BME280;10343;52.402;9.796;2022-08-19T13:05:20;100707.44;;;24.54;48.46
20368;BME280;10343;52.402;9.796;2022-08-19T13:07:50;100698.81;;;24.61;47.37
20368;BME280;10343;52.402;9.796;2022-08-19T13:10:20;100690.69;;;24.61;47.30